Greenbush, Wisconsin
Current Conditions -  °F | °C
As of 8:53 PM on Friday 21 Nov 2014 (Local Time) from KSBM Reporting Station
Clear Clear  
Wind Chill: 17°   Ceiling: Unl
Heat Index: 28°   Visibility: 10mi
Dew Point:   Wind: 15mph
Humidity: 41%   Direction: 190°S
Pressure: 30.15"   Gusts: NA
Location:  43.78°N, 88.08°W
Report Text: KSBM 220253Z AUTO 19013KT 10SM CLR M02/M14 A3015 RMK AO2 SLP222 T10221139 58024
Loading
Personal Weather Stations






























Interactive Weather Map New forecast layout! Learn more

10-Day Weather Forecast

Advertisements
Track Severe Weather on mobile